createdAt,value
2018-05-01T00:00:31.406Z,54.82
2018-05-01T00:01:40.637Z,54.63
2018-05-01T00:02:49.597Z,54.63
2018-05-01T00:03:59.358Z,54.63
2018-05-01T00:05:09.121Z,54.63
2018-05-01T00:06:18.887Z,54.53
2018-05-01T00:07:28.926Z,54.63
2018-05-01T00:08:38.161Z,54.63
2018-05-01T00:09:47.389Z,54.63
2018-05-01T00:10:56.620Z,54.63
2018-05-01T00:12:06.390Z,54.53
2018-05-01T00:13:15.894Z,54.63
2018-05-01T00:14:25.120Z,54.63
2018-05-01T00:15:34.346Z,54.63
2018-05-01T00:16:43.841Z,54.72
2018-05-01T00:17:53.618Z,54.72
2018-05-01T00:19:03.401Z,54.72
2018-05-01T00:20:13.164Z,54.63
2018-05-01T00:21:22.669Z,54.63
2018-05-01T00:22:32.436Z,54.63
2018-05-01T00:23:42.203Z,54.63
2018-05-01T00:24:51.165Z,54.53
2018-05-01T00:26:00.392Z,54.63
2018-05-01T00:27:09.886Z,54.72
2018-05-01T00:28:19.659Z,54.63
2018-05-01T00:29:29.158Z,54.53
2018-05-01T00:30:38.663Z,54.72
2018-05-01T00:31:48.160Z,54.72
2018-05-01T00:32:57.661Z,54.63
2018-05-01T00:34:07.425Z,54.63
2018-05-01T00:35:16.655Z,54.72
2018-05-01T00:36:25.881Z,54.72
2018-05-01T00:37:35.374Z,54.63
2018-05-01T00:38:45.409Z,54.72
2018-05-01T00:39:54.905Z,54.31
2018-05-01T00:41:04.403Z,54.91
2018-05-01T00:42:13.899Z,54.34
2018-05-01T00:43:23.131Z,54.14
2018-05-01T00:44:32.895Z,54.43
2018-05-01T00:45:42.946Z,54.12
2018-05-01T00:46:52.176Z,54.14
2018-05-01T00:48:01.133Z,54.14
2018-05-01T00:49:10.631Z,54.14
2018-05-01T00:50:20.391Z,54.24
2018-05-01T00:51:29.445Z,54.34
2018-05-01T00:52:39.069Z,54.53
2018-05-01T00:53:48.566Z,54.53
2018-05-01T00:54:58.069Z,54.41
2018-05-01T00:56:07.568Z,54.5
2018-05-01T00:57:17.328Z,54.41
2018-05-01T00:58:26.827Z,54.5
2018-05-01T00:59:36.592Z,54.41
2018-05-01T01:00:45.593Z,54.5
2018-05-01T01:01:55.359Z,54.53
2018-05-01T01:03:04.588Z,54.53
2018-05-01T01:04:14.080Z,54.53
2018-05-01T01:05:23.853Z,54.34
2018-05-01T01:06:32.816Z,54.53
2018-05-01T01:07:42.041Z,54.14
2018-05-01T01:08:51.534Z,54.12
2018-05-01T01:10:01.028Z,54.31
2018-05-01T01:11:10.796Z,54.41
2018-05-01T01:12:20.027Z,54.34
2018-05-01T01:13:29.798Z,54.24
2018-05-01T01:14:39.568Z,54.43
2018-05-01T01:15:48.796Z,54.43
2018-05-01T01:16:58.024Z,54.53
2018-05-01T01:18:07.527Z,54.43
2018-05-01T01:19:17.023Z,54.41
2018-05-01T01:20:26.254Z,54.41
2018-05-01T01:21:35.484Z,54.5
2018-05-01T01:22:45.252Z,54.53
2018-05-01T01:23:54.746Z,54.5
2018-05-01T01:25:04.257Z,54.41
2018-05-01T01:26:13.763Z,54.69
2018-05-01T01:27:23.264Z,54.41
2018-05-01T01:28:32.225Z,54.41
2018-05-01T01:29:41.185Z,54.41
2018-05-01T01:30:50.412Z,54.41
2018-05-01T01:31:59.908Z,54.69
2018-05-01T01:33:09.679Z,54.6
2018-05-01T01:34:19.187Z,54.69
2018-05-01T01:35:28.224Z,54.41
2018-05-01T01:36:37.453Z,54.69
2018-05-01T01:37:46.951Z,54.5
2018-05-01T01:38:56.722Z,54.5
2018-05-01T01:40:06.226Z,54.41
2018-05-01T01:41:15.732Z,54.69
2018-05-01T01:42:25.766Z,54.41
2018-05-01T01:43:35.531Z,54.5
2018-05-01T01:44:45.296Z,54.5
2018-05-01T01:45:54.519Z,54.5
2018-05-01T01:47:03.750Z,54.5
2018-05-01T01:48:12.982Z,54.41
2018-05-01T01:49:21.947Z,54.22
2018-05-01T01:50:31.524Z,54.22
2018-05-01T01:51:40.761Z,54.12
2018-05-01T01:52:50.071Z,54.31
2018-05-01T01:53:59.573Z,54.12
2018-05-01T01:55:08.804Z,54.22
2018-05-01T01:56:18.300Z,54.22
2018-05-01T01:57:27.529Z,54.22
2018-05-01T01:58:36.760Z,54.12
2018-05-01T01:59:46.259Z,54.12
2018-05-01T02:00:55.488Z,54.12
2018-05-01T02:02:04.982Z,54.12
2018-05-01T02:03:14.490Z,54.12
2018-05-01T02:04:24.251Z,54.41
2018-05-01T02:05:33.487Z,54.31
2018-05-01T02:06:43.261Z,54.12
2018-05-01T02:07:53.295Z,54.12
2018-05-01T02:09:02.795Z,54.12
2018-05-01T02:10:12.024Z,54.31
2018-05-01T02:11:21.531Z,54.31
2018-05-01T02:12:31.036Z,54.31
2018-05-01T02:13:40.268Z,54.31
2018-05-01T02:14:49.771Z,54.31
2018-05-01T02:15:59.537Z,54.22
2018-05-01T02:17:09.303Z,54.41
2018-05-01T02:18:18.539Z,54.02
2018-05-01T02:19:27.509Z,54.31
2018-05-01T02:20:36.740Z,54.31
2018-05-01T02:21:45.433Z,54.22
2018-05-01T02:22:55.201Z,54.22
2018-05-01T02:24:04.160Z,54.31
2018-05-01T02:25:13.663Z,54.02
2018-05-01T02:26:23.159Z,54.22
2018-05-01T02:27:32.928Z,54.22
2018-05-01T02:28:41.891Z,54.22
2018-05-01T02:29:51.394Z,54.22
2018-05-01T02:31:00.892Z,54.22
2018-05-01T02:32:10.397Z,54.12
2018-05-01T02:33:19.900Z,54.22
2018-05-01T02:34:29.403Z,54.41
2018-05-01T02:35:39.445Z,54.12
2018-05-01T02:36:48.943Z,54.31
2018-05-01T02:37:58.446Z,54.31
2018-05-01T02:39:08.488Z,54.6
2018-05-01T02:40:17.716Z,54.12
2018-05-01T02:41:27.490Z,54.5
2018-05-01T02:42:37.010Z,54.12
2018-05-01T02:43:46.507Z,54.31
2018-05-01T02:44:56.001Z,54.5
2018-05-01T02:46:05.774Z,54.41
2018-05-01T02:47:15.545Z,54.6
2018-05-01T02:48:25.311Z,54.12
2018-05-01T02:49:35.082Z,54.6
2018-05-01T02:50:44.855Z,54.31
2018-05-01T02:51:54.624Z,54.02
2018-05-01T02:53:03.871Z,54.6
2018-05-01T02:54:13.640Z,54.6
2018-05-01T02:55:23.146Z,54.6
2018-05-01T02:56:32.639Z,54.5
2018-05-01T02:57:42.144Z,54.5
2018-05-01T02:58:51.920Z,54.5
2018-05-01T03:00:01.966Z,54.02
2018-05-01T03:01:11.496Z,54.5
2018-05-01T03:02:20.724Z,54.41
2018-05-01T03:03:30.238Z,54.31
2018-05-01T03:04:40.011Z,54.12
2018-05-01T03:05:49.784Z,54.31
2018-05-01T03:06:59.917Z,54.12
2018-05-01T03:08:09.421Z,54.02
2018-05-01T03:09:18.915Z,54.12
2018-05-01T03:10:28.426Z,54.02
2018-05-01T03:11:37.390Z,54.31
2018-05-01T03:12:47.160Z,54.02
2018-05-01T03:13:56.937Z,54.12
2018-05-01T03:15:06.437Z,54.12
2018-05-01T03:16:15.937Z,54.02
2018-05-01T03:17:25.169Z,54.12
2018-05-01T03:18:34.665Z,53.92
2018-05-01T03:19:44.435Z,54.31
2018-05-01T03:20:53.396Z,54.12
2018-05-01T03:22:02.905Z,54.22
2018-05-01T03:23:12.143Z,54.41
2018-05-01T03:24:20.839Z,54.02
2018-05-01T03:25:30.535Z,54.12
2018-05-01T03:26:40.033Z,54.02
2018-05-01T03:27:49.808Z,54.12
2018-05-01T03:28:59.570Z,54.02
2018-05-01T03:30:08.532Z,54.31
2018-05-01T03:31:18.301Z,54
2018-05-01T03:32:28.080Z,54.02
2018-05-01T03:33:37.580Z,54.12
2018-05-01T03:34:47.342Z,54.02
2018-05-01T03:35:56.303Z,54.12
2018-05-01T03:37:06.337Z,54.31
2018-05-01T03:38:16.109Z,54.12
2018-05-01T03:39:25.607Z,53.92
2018-05-01T03:40:35.105Z,54.02
2018-05-01T03:41:44.870Z,53.92
2018-05-01T03:42:54.642Z,54.41
2018-05-01T03:44:03.604Z,54.02
2018-05-01T03:45:13.102Z,54.41
2018-05-01T03:46:22.069Z,54.12
2018-05-01T03:47:31.573Z,54.31
2018-05-01T03:48:41.071Z,54.22
2018-05-01T03:49:50.572Z,54.02
2018-05-01T03:51:00.068Z,54.12
2018-05-01T03:52:09.051Z,54.12
2018-05-01T03:53:18.826Z,54.12
2018-05-01T03:54:28.057Z,54.02
2018-05-01T03:55:37.559Z,54.02
2018-05-01T03:56:46.791Z,54.12
2018-05-01T03:57:56.828Z,54.02
2018-05-01T03:59:06.057Z,54.02
2018-05-01T04:00:15.551Z,54.12
2018-05-01T04:01:25.328Z,54.09
2018-05-01T04:02:34.560Z,54.02
2018-05-01T04:03:43.797Z,54.12
2018-05-01T04:04:53.827Z,54.12
2018-05-01T04:06:03.332Z,53.54
2018-05-01T04:07:12.566Z,53.83
2018-05-01T04:08:22.329Z,53.45
2018-05-01T04:09:31.826Z,53.64
2018-05-01T04:10:41.325Z,53.54
2018-05-01T04:11:50.550Z,53.74
2018-05-01T04:13:00.060Z,53.74
2018-05-01T04:14:09.818Z,53.54
2018-05-01T04:15:19.590Z,53.52
2018-05-01T04:16:28.822Z,53.74
2018-05-01T04:17:38.318Z,53.74
2018-05-01T04:18:48.079Z,53.64
2018-05-01T04:19:57.856Z,53.64
2018-05-01T04:21:07.084Z,53.8
2018-05-01T04:22:16.580Z,53.52
2018-05-01T04:23:25.812Z,53.64
2018-05-01T04:24:35.043Z,53.92
2018-05-01T04:25:44.271Z,53.83
2018-05-01T04:26:53.521Z,53.8
2018-05-01T04:28:03.019Z,53.9
2018-05-01T04:29:12.520Z,53.7
2018-05-01T04:30:22.304Z,53.45
2018-05-01T04:31:32.333Z,53.74
2018-05-01T04:32:41.294Z,53.7
2018-05-01T04:33:50.789Z,53.52
2018-05-01T04:35:00.288Z,53.8
2018-05-01T04:36:09.523Z,53.7
2018-05-01T04:37:19.030Z,53.45
2018-05-01T04:38:28.261Z,53.7
2018-05-01T04:39:38.025Z,53.35
2018-05-01T04:40:46.981Z,53.7
2018-05-01T04:41:56.822Z,53.83
2018-05-01T04:43:06.063Z,53.35
2018-05-01T04:44:15.826Z,53.74
2018-05-01T04:45:25.591Z,53.7
2018-05-01T04:46:35.090Z,53.7
2018-05-01T04:47:44.321Z,53.9
2018-05-01T04:48:53.552Z,53.7
2018-05-01T04:50:03.593Z,53.8
2018-05-01T04:51:12.824Z,53.64
2018-05-01T04:52:22.861Z,53.74
2018-05-01T04:53:32.360Z,53.8
2018-05-01T04:54:41.323Z,53.74
2018-05-01T04:55:51.091Z,53.8
2018-05-01T04:57:01.129Z,53.74
2018-05-01T04:58:10.364Z,53.9
2018-05-01T04:59:20.361Z,53.83
2018-05-01T05:00:29.594Z,53.7
2018-05-01T05:01:38.827Z,53.61
2018-05-01T05:02:48.055Z,53.74
2018-05-01T05:03:58.087Z,53.83
2018-05-01T05:05:07.588Z,53.74
2018-05-01T05:06:17.085Z,53.7
2018-05-01T05:07:26.849Z,53.9
2018-05-01T05:08:36.620Z,53.8
2018-05-01T05:09:46.110Z,53.61
2018-05-01T05:10:55.338Z,53.8
2018-05-01T05:12:04.565Z,53.83
2018-05-01T05:13:14.067Z,53.83
2018-05-01T05:14:23.837Z,53.83
2018-05-01T05:15:33.347Z,53.8
2018-05-01T05:16:42.891Z,53.74
2018-05-01T05:17:52.666Z,53.7
2018-05-01T05:19:02.707Z,53.83
2018-05-01T05:20:12.203Z,53.74
2018-05-01T05:21:21.435Z,53.45
2018-05-01T05:22:30.952Z,53.74
2018-05-01T05:23:40.994Z,53.7
2018-05-01T05:24:50.492Z,53.83
2018-05-01T05:25:59.989Z,53.83
2018-05-01T05:27:08.947Z,53.8
2018-05-01T05:28:18.187Z,53.83
2018-05-01T05:29:27.686Z,53.8
2018-05-01T05:30:37.459Z,53.74
2018-05-01T05:31:46.958Z,53.74
2018-05-01T05:32:56.191Z,53.64
2018-05-01T05:34:05.157Z,53.45
2018-05-01T05:35:14.653Z,53.74
2018-05-01T05:36:24.326Z,53.61
2018-05-01T05:37:34.120Z,53.74
2018-05-01T05:38:43.880Z,53.7
2018-05-01T05:39:53.645Z,53.74
2018-05-01T05:41:03.414Z,53.64
2018-05-01T05:42:12.654Z,53.64
2018-05-01T05:43:22.686Z,53.54
2018-05-01T05:44:32.276Z,53.32
2018-05-01T05:45:41.797Z,53.74
2018-05-01T05:46:51.299Z,53.64
2018-05-01T05:48:01.334Z,53.7
2018-05-01T05:49:10.566Z,53.74
2018-05-01T05:50:20.357Z,53.45
2018-05-01T05:51:29.860Z,53.64
2018-05-01T05:52:39.630Z,53.74
2018-05-01T05:53:48.858Z,53.74
2018-05-01T05:54:58.119Z,53.83
2018-05-01T05:56:07.901Z,53.83
2018-05-01T05:57:17.669Z,53.83
2018-05-01T05:58:27.181Z,53.74
2018-05-01T05:59:36.415Z,53.64
2018-05-01T06:00:46.184Z,53.8
2018-05-01T06:01:55.147Z,53.74
2018-05-01T06:03:04.378Z,53.54
2018-05-01T06:04:13.604Z,53.74
2018-05-01T06:05:23.698Z,53.74
2018-05-01T06:06:33.201Z,53.74
2018-05-01T06:07:42.599Z,53.83
2018-05-01T06:08:52.613Z,53.64
2018-05-01T06:10:02.393Z,53.83
2018-05-01T06:11:11.892Z,53.83
2018-05-01T06:12:21.130Z,53.83
2018-05-01T06:13:30.683Z,53.83
2018-05-01T06:14:40.919Z,53.83
2018-05-01T06:15:50.147Z,53.64
2018-05-01T06:16:59.649Z,53.74
2018-05-01T06:18:09.146Z,53.74
2018-05-01T06:19:18.642Z,53.7
2018-05-01T06:20:28.462Z,53.83
2018-05-01T06:21:37.694Z,53.74
2018-05-01T06:22:46.662Z,53.83
2018-05-01T06:23:55.896Z,53.83
2018-05-01T06:25:05.392Z,53.83
2018-05-01T06:26:15.260Z,53.8
2018-05-01T06:27:25.025Z,53.83
2018-05-01T06:28:34.791Z,53.83
2018-05-01T06:29:44.572Z,53.83
2018-05-01T06:30:54.074Z,53.74
2018-05-01T06:32:03.625Z,53.74
2018-05-01T06:33:13.466Z,53.74
2018-05-01T06:34:23.233Z,53.64
2018-05-01T06:35:33.016Z,53.74
2018-05-01T06:36:42.797Z,53.64
2018-05-01T06:37:52.966Z,53.45
2018-05-01T06:39:02.460Z,53.61
2018-05-01T06:40:12.226Z,53.45
2018-05-01T06:41:21.450Z,53.54
2018-05-01T06:42:31.034Z,53.74
2018-05-01T06:43:41.068Z,53.64
2018-05-01T06:44:50.873Z,53.83
2018-05-01T06:46:00.366Z,53.74
2018-05-01T06:47:09.871Z,53.92
2018-05-01T06:48:19.375Z,53.74
2018-05-01T06:49:29.143Z,53.45
2018-05-01T06:50:38.918Z,53.45
2018-05-01T06:51:49.212Z,53.42
2018-05-01T06:52:58.979Z,53.45
2018-05-01T06:54:08.474Z,53.64
2018-05-01T06:55:17.711Z,53.45
2018-05-01T06:56:27.541Z,53.45
2018-05-01T06:57:36.704Z,53.45
2018-05-01T06:58:46.621Z,53.45
2018-05-01T06:59:56.647Z,53.64
2018-05-01T07:01:05.876Z,53.54
2018-05-01T07:02:15.371Z,53.64
2018-05-01T07:03:24.880Z,53.83
2018-05-01T07:04:35.221Z,53.54
2018-05-01T07:05:44.864Z,53.74
2018-05-01T07:06:54.907Z,53.83
2018-05-01T07:08:04.140Z,53.54
2018-05-01T07:09:13.633Z,53.54
2018-05-01T07:10:22.869Z,53.54
2018-05-01T07:11:32.093Z,53.35
2018-05-01T07:12:41.054Z,53.35
2018-05-01T07:13:51.091Z,53.35
2018-05-01T07:15:00.861Z,53.25
2018-05-01T07:16:10.087Z,53.35
2018-05-01T07:17:20.192Z,53.45
2018-05-01T07:18:29.150Z,53.45
2018-05-01T07:19:38.377Z,53.35
2018-05-01T07:20:47.606Z,53.45
2018-05-01T07:21:57.117Z,53.54
2018-05-01T07:23:06.612Z,53.25
2018-05-01T07:24:16.398Z,53.45
2018-05-01T07:25:26.424Z,53.74
2018-05-01T07:26:36.193Z,53.25
2018-05-01T07:27:45.690Z,53.64
2018-05-01T07:28:54.920Z,53.45
2018-05-01T07:30:04.680Z,53.74
2018-05-01T07:31:14.742Z,53.74
2018-05-01T07:32:24.774Z,53.54
2018-05-01T07:33:34.533Z,53.83
2018-05-01T07:34:44.308Z,54.12
2018-05-01T07:35:53.539Z,53.74
2018-05-01T07:37:02.769Z,54.02
2018-05-01T07:38:12.002Z,54.02
2018-05-01T07:39:21.235Z,54.02
2018-05-01T07:40:30.459Z,54.02
2018-05-01T07:41:40.374Z,54.31
2018-05-01T07:42:50.525Z,54.22
2018-05-01T07:44:00.287Z,53.64
2018-05-01T07:45:09.522Z,53.64
2018-05-01T07:46:19.313Z,52.39
2018-05-01T07:47:28.811Z,52.1
2018-05-01T07:48:38.308Z,51.79
2018-05-01T07:49:48.342Z,51.79
2018-05-01T07:50:57.842Z,51.88
2018-05-01T07:52:06.807Z,52.08
2018-05-01T07:53:16.300Z,52.17
2018-05-01T07:54:26.330Z,51.88
2018-05-01T07:55:36.101Z,52.65
2018-05-01T07:56:45.074Z,52.46
2018-05-01T07:57:54.572Z,52.36
2018-05-01T07:59:04.069Z,52.39
2018-05-01T08:00:13.833Z,52.77
2018-05-01T08:01:23.312Z,52.77
2018-05-01T08:02:33.086Z,53.16
2018-05-01T08:03:42.046Z,53.45
2018-05-01T08:04:51.810Z,52.97
2018-05-01T08:06:01.046Z,53.16
2018-05-01T08:07:10.287Z,53.16
2018-05-01T08:08:19.517Z,53.25
2018-05-01T08:09:29.282Z,53.13
2018-05-01T08:10:38.247Z,53.16
2018-05-01T08:11:47.473Z,53.35
2018-05-01T08:12:56.701Z,53.35
2018-05-01T08:14:05.933Z,53.35
2018-05-01T08:15:15.162Z,53.64
2018-05-01T08:16:24.659Z,53.64
2018-05-01T08:17:34.159Z,53.83
2018-05-01T08:18:43.764Z,53.64
2018-05-01T08:19:53.540Z,53.35
2018-05-01T08:21:03.311Z,53.74
2018-05-01T08:22:13.080Z,53.64
2018-05-01T08:23:22.849Z,53.25
2018-05-01T08:24:32.788Z,53.35
2018-05-01T08:25:41.692Z,53.35
2018-05-01T08:26:51.458Z,53.16
2018-05-01T08:28:00.695Z,52.29
2018-05-01T08:29:10.190Z,52.75
2018-05-01T08:30:19.425Z,52.75
2018-05-01T08:31:29.210Z,52.65
2018-05-01T08:32:38.975Z,53.32
2018-05-01T08:33:48.742Z,53.32
2018-05-01T08:34:58.247Z,53.23
2018-05-01T08:36:07.750Z,53.42
2018-05-01T08:37:17.520Z,53.52
2018-05-01T08:38:27.020Z,53.23
2018-05-01T08:39:36.518Z,53.32
2018-05-01T08:40:45.476Z,52.75
2018-05-01T08:41:54.724Z,52.94
2018-05-01T08:43:03.954Z,52.46
2018-05-01T08:44:13.719Z,52.55
2018-05-01T08:45:23.543Z,52.94
2018-05-01T08:46:33.522Z,52.94
2018-05-01T08:47:42.486Z,53.61
2018-05-01T08:48:51.447Z,53.23
2018-05-01T08:50:01.223Z,53.52
2018-05-01T08:51:11.256Z,53.42
2018-05-01T08:52:20.487Z,53.61
2018-05-01T08:53:30.251Z,53.9
2018-05-01T08:54:40.291Z,53.7
2018-05-01T08:55:49.527Z,53.52
2018-05-01T08:56:59.025Z,54.09
2018-05-01T08:58:07.991Z,53.61
2018-05-01T08:59:17.488Z,53.61
2018-05-01T09:00:26.724Z,53.61
2018-05-01T09:01:36.225Z,53.23
2018-05-01T09:02:45.190Z,53.13
2018-05-01T09:03:54.687Z,53.13
2018-05-01T09:05:04.193Z,53.13
2018-05-01T09:06:13.961Z,53.23
2018-05-01T09:07:23.459Z,53.23
2018-05-01T09:08:33.500Z,53.16
2018-05-01T09:09:42.466Z,53.23
2018-05-01T09:10:52.312Z,53.25
2018-05-01T09:12:01.558Z,53.25
2018-05-01T09:13:10.794Z,53.35
2018-05-01T09:14:20.567Z,53.06
2018-05-01T09:15:30.064Z,53.16
2018-05-01T09:16:39.560Z,53.83
2018-05-01T09:17:49.431Z,53.83
2018-05-01T09:18:59.163Z,53.52
2018-05-01T09:20:08.124Z,53.74
2018-05-01T09:21:17.440Z,53.35
2018-05-01T09:22:26.938Z,53.54
2018-05-01T09:23:36.166Z,53.9
2018-05-01T09:24:46.199Z,53.06
2018-05-01T09:25:55.972Z,52.84
2018-05-01T09:27:04.931Z,52.26
2018-05-01T09:28:14.434Z,53.13
2018-05-01T09:29:24.468Z,53.13
2018-05-01T09:30:33.440Z,53.32
2018-05-01T09:31:43.205Z,53.61
2018-05-01T09:32:52.972Z,53.52
2018-05-01T09:34:02.483Z,53.42
2018-05-01T09:35:11.993Z,53.52
2018-05-01T09:36:21.601Z,53.52
2018-05-01T09:37:31.103Z,53.42
2018-05-01T09:38:40.611Z,53.42
2018-05-01T09:39:49.833Z,53.8
2018-05-01T09:40:59.604Z,53.45
2018-05-01T09:42:08.834Z,53.52
2018-05-01T09:43:17.795Z,53.61
2018-05-01T09:44:27.288Z,53.52
2018-05-01T09:45:36.793Z,53.8
2018-05-01T09:46:46.553Z,53.7
2018-05-01T09:47:56.049Z,53.7
2018-05-01T09:49:05.553Z,53.9
2018-05-01T09:50:15.056Z,53.61
2018-05-01T09:51:24.288Z,53.9
2018-05-01T09:52:33.521Z,53.7
2018-05-01T09:53:42.758Z,53.7
2018-05-01T09:54:52.252Z,53.52
2018-05-01T09:56:01.477Z,53.7
2018-05-01T09:57:10.979Z,53.54
2018-05-01T09:58:20.484Z,53.61
2018-05-01T09:59:29.989Z,53.92
2018-05-01T10:00:38.949Z,53.92
2018-05-01T10:01:48.601Z,53.9
2018-05-01T10:02:58.103Z,53.92
2018-05-01T10:04:07.337Z,53.54
2018-05-01T10:05:17.107Z,54.31
2018-05-01T10:06:26.615Z,54.5
2018-05-01T10:07:36.652Z,53.74
2018-05-01T10:08:46.417Z,53.23
2018-05-01T10:09:55.920Z,53.32
2018-05-01T10:11:04.879Z,52.84
2018-05-01T10:12:14.934Z,52.55
2018-05-01T10:13:25.065Z,53.42
2018-05-01T10:14:34.295Z,53.32
2018-05-01T10:15:43.794Z,53.23
2018-05-01T10:16:53.035Z,53.23
2018-05-01T10:18:02.799Z,53.23
2018-05-01T10:19:12.569Z,53.32
2018-05-01T10:20:21.805Z,53.32
2018-05-01T10:21:31.300Z,53.52
2018-05-01T10:22:40.268Z,53.61
2018-05-01T10:23:49.491Z,53.7
2018-05-01T10:24:58.456Z,53.7
2018-05-01T10:26:08.226Z,53.7
2018-05-01T10:27:16.927Z,53.61
2018-05-01T10:28:26.155Z,53.8
2018-05-01T10:29:35.940Z,53.42
2018-05-01T10:30:45.708Z,53.32
2018-05-01T10:31:55.205Z,53.42
2018-05-01T10:33:04.712Z,53.23
2018-05-01T10:34:14.475Z,53.13
2018-05-01T10:35:23.701Z,53.03
2018-05-01T10:36:32.661Z,53.13
2018-05-01T10:37:41.623Z,53.32
2018-05-01T10:38:51.092Z,53.32
2018-05-01T10:40:01.681Z,53.32
2018-05-01T10:41:11.183Z,53.32
2018-05-01T10:42:20.680Z,53.8
2018-05-01T10:43:30.447Z,53.8
2018-05-01T10:44:39.946Z,53.61
2018-05-01T10:45:49.505Z,53.32
2018-05-01T10:46:59.011Z,53.52
2018-05-01T10:48:08.245Z,53.61
2018-05-01T10:49:18.017Z,53.7
2018-05-01T10:50:27.894Z,53.42
2018-05-01T10:51:37.387Z,53.8
2018-05-01T10:52:46.888Z,53.42
2018-05-01T10:53:56.385Z,52.94
2018-05-01T10:55:05.885Z,53.7
2018-05-01T10:56:15.114Z,53.52
2018-05-01T10:57:24.345Z,53.32
2018-05-01T10:58:33.845Z,53.8
2018-05-01T10:59:43.344Z,53.61
2018-05-01T11:00:52.842Z,53.52
2018-05-01T11:02:02.349Z,53.42
2018-05-01T11:03:11.845Z,53.8
2018-05-01T11:04:20.804Z,53.61
2018-05-01T11:05:30.302Z,53.32
2018-05-01T11:06:39.536Z,53.35
2018-05-01T11:07:49.033Z,53.32
2018-05-01T11:08:58.265Z,53.32
2018-05-01T11:10:07.500Z,53.23
2018-05-01T11:11:17.001Z,53.25
2018-05-01T11:12:26.502Z,53.23
2018-05-01T11:13:35.733Z,53.45
2018-05-01T11:14:44.694Z,53.54
2018-05-01T11:15:53.919Z,54.02
2018-05-01T11:17:03.152Z,54.02
2018-05-01T11:18:12.923Z,53.35
2018-05-01T11:19:22.419Z,53.16
2018-05-01T11:20:31.651Z,52.65
2018-05-01T11:21:41.421Z,52.55
2018-05-01T11:22:50.650Z,52.26
2018-05-01T11:23:59.624Z,53.32
2018-05-01T11:25:08.857Z,53.13
2018-05-01T11:26:18.816Z,53.13
2018-05-01T11:27:28.053Z,53.35
2018-05-01T11:28:37.963Z,53.42
2018-05-01T11:29:47.748Z,53.74
2018-05-01T11:30:56.984Z,53.64
2018-05-01T11:32:05.951Z,53.64
2018-05-01T11:33:15.192Z,53.74
2018-05-01T11:34:24.152Z,53.92
2018-05-01T11:35:33.378Z,53.45
2018-05-01T11:36:42.612Z,53.25
2018-05-01T11:37:52.113Z,53.45
2018-05-01T11:39:01.621Z,53.06
2018-05-01T11:40:10.594Z,52.97
2018-05-01T11:41:20.098Z,52.48
2018-05-01T11:42:29.337Z,52.77
2018-05-01T11:43:38.296Z,52.29
2018-05-01T11:44:47.524Z,53.25
2018-05-01T11:45:57.146Z,53.16
2018-05-01T11:47:06.109Z,53.45
2018-05-01T11:48:15.606Z,53.74
2018-05-01T11:49:24.836Z,53.74
2018-05-01T11:50:34.067Z,53.35
2018-05-01T11:51:43.568Z,53.74
2018-05-01T11:52:53.329Z,53.74
2018-05-01T11:54:02.835Z,54.12
2018-05-01T11:55:11.802Z,54.02
2018-05-01T11:56:21.296Z,54.22
2018-05-01T11:57:30.794Z,54.12
2018-05-01T11:58:39.764Z,54.31
2018-05-01T11:59:49.261Z,54.22
2018-05-01T12:00:58.487Z,54.41
2018-05-01T12:02:07.982Z,53.92
2018-05-01T12:03:16.942Z,54.12
2018-05-01T12:04:26.504Z,53.92
2018-05-01T12:05:36.211Z,54.22
2018-05-01T12:06:45.711Z,54.31
2018-05-01T12:07:54.670Z,54.31
2018-05-01T12:09:04.165Z,54.6
2018-05-01T12:10:13.124Z,54.41
2018-05-01T12:11:22.625Z,54.41
2018-05-01T12:12:32.403Z,54.41
2018-05-01T12:13:42.512Z,54.41
2018-05-01T12:14:51.741Z,54.69
2018-05-01T12:16:01.511Z,54.5
2018-05-01T12:17:10.765Z,54.6
2018-05-01T12:18:19.989Z,54.41
2018-05-01T12:19:29.764Z,54.79
2018-05-01T12:20:39.577Z,54.79
2018-05-01T12:21:49.359Z,54.5
2018-05-01T12:22:58.870Z,54.22
2018-05-01T12:24:08.385Z,54.12
2018-05-01T12:25:17.730Z,54.5
2018-05-01T12:26:27.594Z,53.54
2018-05-01T12:27:36.822Z,53.54
2018-05-01T12:28:46.054Z,53.54
2018-05-01T12:29:55.363Z,53.25
2018-05-01T12:31:04.660Z,53.35
2018-05-01T12:32:13.889Z,53.35
2018-05-01T12:33:23.659Z,53.35
2018-05-01T12:34:33.436Z,53.25
2018-05-01T12:35:42.404Z,53.16
2018-05-01T12:36:51.956Z,53.25
2018-05-01T12:38:02.355Z,53.45
2018-05-01T12:39:11.311Z,53.16
2018-05-01T12:40:20.806Z,53.16
2018-05-01T12:41:29.766Z,53.35
2018-05-01T12:42:39.261Z,53.54
2018-05-01T12:43:48.758Z,53.54
2018-05-01T12:44:58.254Z,54.02
2018-05-01T12:46:07.759Z,54.41
2018-05-01T12:47:17.529Z,54.5
2018-05-01T12:48:27.404Z,54.6
2018-05-01T12:49:37.275Z,54.6
2018-05-01T12:50:46.796Z,54.31
2018-05-01T12:51:56.301Z,54.41
2018-05-01T12:53:05.530Z,54.5
2018-05-01T12:54:14.757Z,54.31
2018-05-01T12:55:24.260Z,54.69
2018-05-01T12:56:33.488Z,54.69
2018-05-01T12:57:42.988Z,54.31
2018-05-01T12:58:52.756Z,54.41
2018-05-01T13:00:02.257Z,54.69
2018-05-01T13:01:11.757Z,55.37
2018-05-01T13:02:21.015Z,55.18
2018-05-01T13:03:30.514Z,54.89
2018-05-01T13:04:40.013Z,55.27
2018-05-01T13:05:49.518Z,55.18
2018-05-01T13:06:58.801Z,55.08
2018-05-01T13:08:08.303Z,54.99
2018-05-01T13:09:17.586Z,55.08
2018-05-01T13:10:27.676Z,55.76
2018-05-01T13:11:37.445Z,55.56
2018-05-01T13:12:47.216Z,55.56
2018-05-01T13:13:56.980Z,55.56
2018-05-01T13:15:06.479Z,55.56
2018-05-01T13:16:15.438Z,55.56
2018-05-01T13:17:24.932Z,55.66
2018-05-01T13:18:34.710Z,55.66
2018-05-01T13:19:44.484Z,55.85
2018-05-01T13:20:53.992Z,55.66
2018-05-01T13:22:03.765Z,55.66
2018-05-01T13:23:12.999Z,55.94
2018-05-01T13:24:22.232Z,54.99
2018-05-01T13:25:31.474Z,55.08
2018-05-01T13:26:40.973Z,55.18
2018-05-01T13:27:50.489Z,55.18
2018-05-01T13:28:59.985Z,55.18
2018-05-01T13:30:08.948Z,55.08
2018-05-01T13:31:18.453Z,54.99
2018-05-01T13:32:28.343Z,54.89
2018-05-01T13:33:38.263Z,54.99
2018-05-01T13:34:47.762Z,54.99
2018-05-01T13:35:57.004Z,55.08
2018-05-01T13:37:06.233Z,55.37
2018-05-01T13:38:15.783Z,55.37
2018-05-01T13:39:25.026Z,55.27
2018-05-01T13:40:34.245Z,55.27
2018-05-01T13:41:43.746Z,55.37
2018-05-01T13:42:53.519Z,55.27
2018-05-01T13:44:03.020Z,55.3
2018-05-01T13:45:12.594Z,55.18
2018-05-01T13:46:22.365Z,55.18
2018-05-01T13:47:31.872Z,54.89
2018-05-01T13:48:41.637Z,54.79
2018-05-01T13:49:51.138Z,54.12
2018-05-01T13:51:00.369Z,53.64
2018-05-01T13:52:09.599Z,53.45
2018-05-01T13:53:18.866Z,53.54
2018-05-01T13:54:28.537Z,53.54
2018-05-01T13:55:38.402Z,53.74
2018-05-01T13:56:48.168Z,53.45
2018-05-01T13:57:57.933Z,53.54
2018-05-01T13:59:07.708Z,54.02
2018-05-01T14:00:17.473Z,54.12
2018-05-01T14:01:26.970Z,54.89
2018-05-01T14:02:35.931Z,54.5
2018-05-01T14:03:45.433Z,54.5
2018-05-01T14:04:54.662Z,54.5
2018-05-01T14:06:03.892Z,54.41
2018-05-01T14:07:13.124Z,54.22
2018-05-01T14:08:22.624Z,54.5
2018-05-01T14:09:31.592Z,54.31
2018-05-01T14:10:41.088Z,54.6
2018-05-01T14:11:50.318Z,54.69
2018-05-01T14:12:59.547Z,54.79
2018-05-01T14:14:08.785Z,54.79
2018-05-01T14:15:18.278Z,54.31
2018-05-01T14:16:27.238Z,54.79
2018-05-01T14:17:37.007Z,54.41
2018-05-01T14:18:46.506Z,54.31
2018-05-01T14:19:56.007Z,54.69
2018-05-01T14:21:05.507Z,54.5
2018-05-01T14:22:14.197Z,54.5
2018-05-01T14:23:23.689Z,54.41
2018-05-01T14:24:33.272Z,54.63
2018-05-01T14:25:42.318Z,54.53
2018-05-01T14:26:52.469Z,54.91
2018-05-01T14:28:01.709Z,54.22
2018-05-01T14:29:10.941Z,54.5
2018-05-01T14:30:19.903Z,55.4
2018-05-01T14:31:29.402Z,55.18
2018-05-01T14:32:38.897Z,54.34
2018-05-01T14:33:48.124Z,55.46
2018-05-01T14:34:57.354Z,55.3
2018-05-01T14:36:06.861Z,55.27
2018-05-01T14:37:16.631Z,54.72
2018-05-01T14:38:25.595Z,54.34
2018-05-01T14:39:34.824Z,54.53
2018-05-01T14:40:43.789Z,54.43
2018-05-01T14:41:53.296Z,54.53
2018-05-01T14:43:03.122Z,55.3
2018-05-01T14:44:12.350Z,54.43
2018-05-01T14:45:21.574Z,54.63
2018-05-01T14:46:31.066Z,55.01
2018-05-01T14:47:40.327Z,54.82
2018-05-01T14:48:50.123Z,54.53
2018-05-01T14:49:59.889Z,54.31
2018-05-01T14:51:08.849Z,53.74
2018-05-01T14:52:18.080Z,52.97
2018-05-01T14:53:27.040Z,52.2
2018-05-01T14:54:36.536Z,51.04
2018-05-01T14:55:45.495Z,50.37
2018-05-01T14:56:54.728Z,50.46
2018-05-01T14:58:03.960Z,50.63
2018-05-01T14:59:12.982Z,51.02